sensor_id;sensor_type;location;lat;lon;timestamp;temperature;humidity
20422;DHT22;10370;53.102;18.034;2022-10-04T00:04:42;10.60;99.90
20422;DHT22;10370;53.102;18.034;2022-10-04T00:10:20;10.70;99.90
20422;DHT22;10370;53.102;18.034;2022-10-04T00:15:48;10.70;99.90
20422;DHT22;10370;53.102;18.034;2022-10-04T00:21:10;10.70;99.90
20422;DHT22;10370;53.102;18.034;2022-10-04T00:38:31;10.70;99.90
20422;DHT22;10370;53.102;18.034;2022-10-04T00:43:39;10.70;99.90
20422;DHT22;10370;53.102;18.034;2022-10-04T00:49:04;10.60;99.90
20422;DHT22;10370;53.102;18.034;2022-10-04T00:54:43;10.60;99.90
20422;DHT22;10370;53.102;18.034;2022-10-04T01:00:11;10.50;99.90
20422;DHT22;10370;53.102;18.034;2022-10-04T01:05:37;10.40;99.90
20422;DHT22;10370;53.102;18.034;2022-10-04T01:11:34;10.40;99.90
20422;DHT22;10370;53.102;18.034;2022-10-04T01:16:56;10.40;99.90
20422;DHT22;10370;53.102;18.034;2022-10-04T01:22:33;10.30;99.90
20422;DHT22;10370;53.102;18.034;2022-10-04T01:27:54;10.20;99.90
20422;DHT22;10370;53.102;18.034;2022-10-04T01:33:16;10.10;99.90
20422;DHT22;10370;53.102;18.034;2022-10-04T01:38:36;10.00;99.90
20422;DHT22;10370;53.102;18.034;2022-10-04T01:43:59;9.90;99.90
20422;DHT22;10370;53.102;18.034;2022-10-04T01:49:27;9.80;99.90
20422;DHT22;10370;53.102;18.034;2022-10-04T01:55:00;9.80;99.90
20422;DHT22;10370;53.102;18.034;2022-10-04T02:00:21;9.80;99.90
20422;DHT22;10370;53.102;18.034;2022-10-04T02:05:50;9.70;99.90
20422;DHT22;10370;53.102;18.034;2022-10-04T02:11:16;9.70;99.90
20422;DHT22;10370;53.102;18.034;2022-10-04T02:16:39;9.60;99.90
20422;DHT22;10370;53.102;18.034;2022-10-04T02:22:02;9.70;99.90
20422;DHT22;10370;53.102;18.034;2022-10-04T02:27:26;9.60;99.90
20422;DHT22;10370;53.102;18.034;2022-10-04T02:32:52;9.50;99.90
20422;DHT22;10370;53.102;18.034;2022-10-04T02:38:21;9.50;99.90
20422;DHT22;10370;53.102;18.034;2022-10-04T02:43:49;9.50;99.90
20422;DHT22;10370;53.102;18.034;2022-10-04T02:49:16;9.40;99.90
20422;DHT22;10370;53.102;18.034;2022-10-04T02:54:42;9.40;99.90
20422;DHT22;10370;53.102;18.034;2022-10-04T03:00:25;9.30;99.90
20422;DHT22;10370;53.102;18.034;2022-10-04T03:05:52;9.30;99.90
20422;DHT22;10370;53.102;18.034;2022-10-04T03:11:13;9.30;99.90
20422;DHT22;10370;53.102;18.034;2022-10-04T03:16:37;9.30;99.90
20422;DHT22;10370;53.102;18.034;2022-10-04T03:22:00;9.40;99.90
20422;DHT22;10370;53.102;18.034;2022-10-04T03:27:27;9.40;99.90
20422;DHT22;10370;53.102;18.034;2022-10-04T03:32:48;9.40;99.90
20422;DHT22;10370;53.102;18.034;2022-10-04T03:38:10;9.40;99.90
20422;DHT22;10370;53.102;18.034;2022-10-04T03:43:31;9.30;99.90
20422;DHT22;10370;53.102;18.034;2022-10-04T03:48:53;9.30;99.90
20422;DHT22;10370;53.102;18.034;2022-10-04T03:54:16;9.10;99.90
20422;DHT22;10370;53.102;18.034;2022-10-04T03:59:37;9.20;99.90
20422;DHT22;10370;53.102;18.034;2022-10-04T04:05:04;9.30;99.90
20422;DHT22;10370;53.102;18.034;2022-10-04T04:10:27;9.40;99.90
20422;DHT22;10370;53.102;18.034;2022-10-04T04:15:48;9.40;99.90
20422;DHT22;10370;53.102;18.034;2022-10-04T04:21:11;9.50;99.90
20422;DHT22;10370;53.102;18.034;2022-10-04T04:31:57;9.40;99.90
20422;DHT22;10370;53.102;18.034;2022-10-04T04:37:19;9.40;99.90
20422;DHT22;10370;53.102;18.034;2022-10-04T04:42:40;9.20;99.90
20422;DHT22;10370;53.102;18.034;2022-10-04T04:48:01;9.10;99.90
20422;DHT22;10370;53.102;18.034;2022-10-04T04:53:25;9.00;99.90
20422;DHT22;10370;53.102;18.034;2022-10-04T04:58:46;8.90;99.90
20422;DHT22;10370;53.102;18.034;2022-10-04T05:09:31;8.90;99.90
20422;DHT22;10370;53.102;18.034;2022-10-04T05:14:52;8.90;99.90
20422;DHT22;10370;53.102;18.034;2022-10-04T05:20:13;8.90;99.90
20422;DHT22;10370;53.102;18.034;2022-10-04T05:25:34;8.80;99.90
20422;DHT22;10370;53.102;18.034;2022-10-04T05:30:59;8.90;99.90
20422;DHT22;10370;53.102;18.034;2022-10-04T05:36:36;9.10;99.90
20422;DHT22;10370;53.102;18.034;2022-10-04T05:42:04;9.20;99.90
20422;DHT22;10370;53.102;18.034;2022-10-04T05:47:30;9.20;99.90
20422;DHT22;10370;53.102;18.034;2022-10-04T05:52:51;9.30;99.90
20422;DHT22;10370;53.102;18.034;2022-10-04T05:58:24;9.40;99.90
20422;DHT22;10370;53.102;18.034;2022-10-04T06:26:06;9.90;99.90
20422;DHT22;10370;53.102;18.034;2022-10-04T06:42:24;10.50;99.90
20422;DHT22;10370;53.102;18.034;2022-10-04T06:48:16;10.50;99.90
20422;DHT22;10370;53.102;18.034;2022-10-04T07:17:24;11.30;99.90
20422;DHT22;10370;53.102;18.034;2022-10-04T07:23:27;11.30;99.90
20422;DHT22;10370;53.102;18.034;2022-10-04T07:28:51;11.30;99.90
20422;DHT22;10370;53.102;18.034;2022-10-04T07:34:45;11.50;99.90
20422;DHT22;10370;53.102;18.034;2022-10-04T07:45:41;11.50;99.90
20422;DHT22;10370;53.102;18.034;2022-10-04T07:57:02;11.70;99.90
20422;DHT22;10370;53.102;18.034;2022-10-04T08:19:56;12.30;99.90
20422;DHT22;10370;53.102;18.034;2022-10-04T08:25:33;12.30;99.90
20422;DHT22;10370;53.102;18.034;2022-10-04T08:48:29;12.50;99.90
20422;DHT22;10370;53.102;18.034;2022-10-04T09:11:25;13.00;99.90
20422;DHT22;10370;53.102;18.034;2022-10-04T09:22:45;13.30;99.90
20422;DHT22;10370;53.102;18.034;2022-10-04T09:34:26;13.40;99.90
20422;DHT22;10370;53.102;18.034;2022-10-04T09:57:14;14.00;99.90
20422;DHT22;10370;53.102;18.034;2022-10-04T11:28:57;15.20;99.90
20422;DHT22;10370;53.102;18.034;2022-10-04T11:34:49;15.50;99.90
20422;DHT22;10370;53.102;18.034;2022-10-04T11:46:20;15.50;99.90
20422;DHT22;10370;53.102;18.034;2022-10-04T11:57:46;15.50;99.90
20422;DHT22;10370;53.102;18.034;2022-10-04T12:32:18;15.70;99.90
20422;DHT22;10370;53.102;18.034;2022-10-04T12:43:43;15.80;99.90
20422;DHT22;10370;53.102;18.034;2022-10-04T12:55:17;15.50;99.90
20422;DHT22;10370;53.102;18.034;2022-10-04T13:00:42;15.60;99.90
20422;DHT22;10370;53.102;18.034;2022-10-04T13:06:38;15.40;99.90
20422;DHT22;10370;53.102;18.034;2022-10-04T13:40:16;15.70;99.90
20422;DHT22;10370;53.102;18.034;2022-10-04T13:45:55;15.80;99.90
20422;DHT22;10370;53.102;18.034;2022-10-04T13:57:19;15.80;99.90
20422;DHT22;10370;53.102;18.034;2022-10-04T14:08:58;15.70;99.90
20422;DHT22;10370;53.102;18.034;2022-10-04T14:14:30;15.60;99.90
20422;DHT22;10370;53.102;18.034;2022-10-04T15:06:46;15.20;99.90
20422;DHT22;10370;53.102;18.034;2022-10-04T15:18:23;15.00;99.90
20422;DHT22;10370;53.102;18.034;2022-10-04T15:23:57;14.70;99.90
20422;DHT22;10370;53.102;18.034;2022-10-04T15:29:37;14.60;99.90
20422;DHT22;10370;53.102;18.034;2022-10-04T15:40:56;14.40;99.90
20422;DHT22;10370;53.102;18.034;2022-10-04T15:47:11;14.20;99.90
20422;DHT22;10370;53.102;18.034;2022-10-04T16:43:08;12.60;99.90
20422;DHT22;10370;53.102;18.034;2022-10-04T16:54:30;12.10;99.90
20422;DHT22;10370;53.102;18.034;2022-10-04T16:59:57;11.80;99.90
20422;DHT22;10370;53.102;18.034;2022-10-04T17:05:40;11.60;99.90
20422;DHT22;10370;53.102;18.034;2022-10-04T17:17:00;11.20;99.90
20422;DHT22;10370;53.102;18.034;2022-10-04T17:22:26;11.00;99.90
20422;DHT22;10370;53.102;18.034;2022-10-04T17:28:13;10.90;99.90
20422;DHT22;10370;53.102;18.034;2022-10-04T17:39:46;10.60;99.90
20422;DHT22;10370;53.102;18.034;2022-10-04T17:45:24;10.40;99.90
20422;DHT22;10370;53.102;18.034;2022-10-04T18:25:36;9.70;99.90
20422;DHT22;10370;53.102;18.034;2022-10-04T18:31:02;9.60;99.90
20422;DHT22;10370;53.102;18.034;2022-10-04T18:36:30;9.60;99.90
20422;DHT22;10370;53.102;18.034;2022-10-04T18:47:39;9.20;99.90
20422;DHT22;10370;53.102;18.034;2022-10-04T18:59:00;9.10;99.90
20422;DHT22;10370;53.102;18.034;2022-10-04T19:05:05;9.10;99.90
20422;DHT22;10370;53.102;18.034;2022-10-04T19:10:41;9.00;99.90
20422;DHT22;10370;53.102;18.034;2022-10-04T19:16:39;9.00;99.90
20422;DHT22;10370;53.102;18.034;2022-10-04T19:22:17;9.00;99.90
20422;DHT22;10370;53.102;18.034;2022-10-04T19:28:19;8.90;99.90
20422;DHT22;10370;53.102;18.034;2022-10-04T19:39:51;8.90;99.90
20422;DHT22;10370;53.102;18.034;2022-10-04T19:50:34;8.70;99.90
20422;DHT22;10370;53.102;18.034;2022-10-04T19:55:57;8.80;99.90
20422;DHT22;10370;53.102;18.034;2022-10-04T20:01:20;8.80;99.90
20422;DHT22;10370;53.102;18.034;2022-10-04T20:06:55;8.80;99.90
20422;DHT22;10370;53.102;18.034;2022-10-04T20:23:54;8.80;99.90
20422;DHT22;10370;53.102;18.034;2022-10-04T20:34:58;8.80;99.90
20422;DHT22;10370;53.102;18.034;2022-10-04T20:45:44;8.70;99.90
20422;DHT22;10370;53.102;18.034;2022-10-04T20:51:07;8.70;99.90
20422;DHT22;10370;53.102;18.034;2022-10-04T20:56:30;8.60;99.90
20422;DHT22;10370;53.102;18.034;2022-10-04T21:02:03;8.50;99.90
20422;DHT22;10370;53.102;18.034;2022-10-04T21:07:31;8.40;99.90
20422;DHT22;10370;53.102;18.034;2022-10-04T21:12:52;8.30;99.90
20422;DHT22;10370;53.102;18.034;2022-10-04T21:18:22;8.20;99.90
20422;DHT22;10370;53.102;18.034;2022-10-04T21:23:43;8.20;99.90
20422;DHT22;10370;53.102;18.034;2022-10-04T21:29:04;8.20;99.90
20422;DHT22;10370;53.102;18.034;2022-10-04T21:34:25;8.10;99.90
20422;DHT22;10370;53.102;18.034;2022-10-04T21:40:06;8.10;99.90
20422;DHT22;10370;53.102;18.034;2022-10-04T21:45:27;8.00;99.90
20422;DHT22;10370;53.102;18.034;2022-10-04T21:50:52;7.90;99.90
20422;DHT22;10370;53.102;18.034;2022-10-04T21:56:12;8.00;99.90
20422;DHT22;10370;53.102;18.034;2022-10-04T22:01:34;7.90;99.90
20422;DHT22;10370;53.102;18.034;2022-10-04T22:06:55;7.80;99.90
20422;DHT22;10370;53.102;18.034;2022-10-04T22:12:15;7.80;99.90
20422;DHT22;10370;53.102;18.034;2022-10-04T22:17:36;7.70;99.90
20422;DHT22;10370;53.102;18.034;2022-10-04T22:22:57;7.70;99.90
20422;DHT22;10370;53.102;18.034;2022-10-04T22:28:26;7.60;99.90
20422;DHT22;10370;53.102;18.034;2022-10-04T22:33:49;7.70;99.90
20422;DHT22;10370;53.102;18.034;2022-10-04T22:39:16;7.60;99.90
20422;DHT22;10370;53.102;18.034;2022-10-04T22:44:37;7.50;99.90
20422;DHT22;10370;53.102;18.034;2022-10-04T22:49:59;7.50;99.90
20422;DHT22;10370;53.102;18.034;2022-10-04T22:55:20;7.50;99.90
20422;DHT22;10370;53.102;18.034;2022-10-04T23:00:42;7.50;99.90
20422;DHT22;10370;53.102;18.034;2022-10-04T23:06:03;7.40;99.90
20422;DHT22;10370;53.102;18.034;2022-10-04T23:11:24;7.50;99.90
20422;DHT22;10370;53.102;18.034;2022-10-04T23:16:45;7.60;99.90
20422;DHT22;10370;53.102;18.034;2022-10-04T23:22:09;7.70;99.90
20422;DHT22;10370;53.102;18.034;2022-10-04T23:27:33;7.90;99.90
20422;DHT22;10370;53.102;18.034;2022-10-04T23:32:56;7.90;99.90
20422;DHT22;10370;53.102;18.034;2022-10-04T23:38:20;7.90;99.90
20422;DHT22;10370;53.102;18.034;2022-10-04T23:43:42;8.00;99.90
20422;DHT22;10370;53.102;18.034;2022-10-04T23:49:02;8.10;99.90
20422;DHT22;10370;53.102;18.034;2022-10-04T23:54:24;8.20;99.90
20422;DHT22;10370;53.102;18.034;2022-10-04T23:59:44;8.20;99.90
